Time;durP1;ratioP1;P1;durP2;ratioP2;P2;SDS_P1;SDS_P2;PMS_P1;PMS_P2;Temp;Humidity;BMP_temperature;BMP_pressure;BME280_temperature;BME280_humidity;BME280_pressure;Samples;Min_cycle;Max_cycle;Signal;HPM_P1;HPM_P2
2022/04/03 00:00:10;;;;;;;17.38;5.15;;;;;;;-1.49;70.32;102173.06;5051502;28;20429;-77
2022/04/03 00:02:36;;;;;;;12.10;3.67;;;;;;;-1.51;69.49;102168.69;5044432;28;20079;-77
2022/04/03 00:05:01;;;;;;;12.32;4.00;;;;;;;-1.53;70.49;102166.03;5054317;28;20542;-77
2022/04/03 00:07:26;;;;;;;15.10;4.50;;;;;;;-1.55;70.49;102167.81;5052257;28;20044;-77
2022/04/03 00:09:52;;;;;;;11.52;3.95;;;;;;;-1.59;71.05;102168.69;5052753;28;20075;-77
2022/04/03 00:12:17;;;;;;;13.13;3.88;;;;;;;-1.63;70.51;102162.53;5052571;28;20025;-77
2022/04/03 00:14:43;;;;;;;17.20;4.07;;;;;;;-1.64;69.76;102167.81;5043036;28;20619;-77
2022/04/03 00:17:08;;;;;;;12.20;3.13;;;;;;;-1.66;69.95;102166.94;5049291;28;20162;-77
2022/04/03 00:19:33;;;;;;;11.98;3.55;;;;;;;-1.68;69.91;102161.69;5050760;28;20033;-77
2022/04/03 00:22:00;;;;;;;14.93;4.05;;;;;;;-1.69;69.53;102159.06;5047574;28;20374;-77
2022/04/03 00:24:25;;;;;;;15.02;4.38;;;;;;;-1.67;69.57;102158.19;5037508;28;20025;-77
2022/04/03 00:26:50;;;;;;;12.90;4.00;;;;;;;-1.68;69.68;102159.03;5052524;28;20028;-77
2022/04/03 00:29:16;;;;;;;10.55;3.42;;;;;;;-1.68;70.26;102166.94;5052401;28;20029;-77
2022/04/03 00:31:41;;;;;;;14.57;3.60;;;;;;;-1.69;69.26;102161.69;5050814;28;20032;-77
2022/04/03 00:34:07;;;;;;;12.23;3.67;;;;;;;-1.68;70.64;102160.81;5035598;28;20461;-77
2022/04/03 00:36:32;;;;;;;18.27;3.67;;;;;;;-1.71;70.28;102161.69;5050033;28;20033;-77
2022/04/03 00:38:57;;;;;;;11.23;3.88;;;;;;;-1.70;69.27;102162.56;5046766;28;20025;-77
2022/04/03 00:41:23;;;;;;;15.98;4.40;;;;;;;-1.67;70.11;102157.28;5054008;28;20059;-77
2022/04/03 00:43:48;;;;;;;15.15;4.32;;;;;;;-1.65;70.23;102166.94;5043380;28;20065;-77
2022/04/03 00:46:17;;;;;;;14.48;4.68;;;;;;;-1.72;69.73;102159.06;5042738;28;20037;-77
2022/04/03 00:48:44;;;;;;;13.88;4.30;;;;;;;-1.79;70.79;102166.97;5051052;28;20112;-77
2022/04/03 00:51:11;;;;;;;13.23;3.95;;;;;;;-1.84;70.67;102165.22;5048119;28;20025;-77
2022/04/03 00:53:36;;;;;;;14.25;3.80;;;;;;;-1.89;71.04;102166.97;5040454;28;20377;-77
2022/04/03 00:56:01;;;;;;;16.45;4.35;;;;;;;-1.92;71.21;102167.84;5052612;28;20032;-77
2022/04/03 00:58:27;;;;;;;15.73;4.05;;;;;;;-1.99;71.79;102159.06;5052718;28;20400;-77
2022/04/03 01:00:52;;;;;;;12.50;3.67;;;;;;;-2.02;71.37;102166.06;5053823;28;20408;-76
2022/04/03 01:03:17;;;;;;;12.55;3.85;;;;;;;-2.06;71.74;102157.31;5051200;28;20502;-77
2022/04/03 01:05:42;;;;;;;15.27;4.53;;;;;;;-2.09;71.50;102164.31;5040673;28;20033;-77
2022/04/03 01:08:09;;;;;;;19.35;5.90;;;;;;;-2.14;71.73;102169.59;5038372;28;20044;-77
2022/04/03 01:10:34;;;;;;;23.08;8.07;;;;;;;-2.18;71.67;102163.44;5036459;28;20029;-77
2022/04/03 01:12:59;;;;;;;23.60;8.32;;;;;;;-2.19;72.51;102160.81;5052481;28;20028;-77
2022/04/03 01:15:25;;;;;;;22.48;8.48;;;;;;;-2.23;72.38;102162.56;5040435;28;20037;-77
2022/04/03 01:17:50;;;;;;;22.98;8.95;;;;;;;-2.24;73.19;102159.91;5050548;28;20025;-77
2022/04/03 01:20:15;;;;;;;21.25;7.13;;;;;;;-2.27;73.33;102163.41;5045935;28;20079;-77
2022/04/03 01:22:41;;;;;;;22.65;7.30;;;;;;;-2.30;73.07;102160.78;5043381;28;20025;-77
2022/04/03 01:25:10;;;;;;;17.08;6.22;;;;;;;-2.34;73.01;102161.69;5048440;28;20388;-77
2022/04/03 01:27:35;;;;;;;18.40;6.35;;;;;;;-2.38;73.30;102158.16;5047395;28;20028;-77
2022/04/03 01:30:01;;;;;;;18.88;5.72;;;;;;;-2.39;73.71;102166.06;5040014;28;20459;-77
2022/04/03 01:32:26;;;;;;;16.17;5.45;;;;;;;-2.42;73.25;102166.06;5042294;28;20028;-77
2022/04/03 01:34:51;;;;;;;18.27;5.20;;;;;;;-2.46;73.72;102165.16;5052688;28;20485;-77
2022/04/03 01:37:17;;;;;;;21.33;5.60;;;;;;;-2.49;73.68;102158.16;5041348;28;20033;-77
2022/04/03 01:39:42;;;;;;;15.27;4.88;;;;;;;-2.51;73.87;102164.28;5051977;28;20025;-77
2022/04/03 01:42:07;;;;;;;12.50;4.03;;;;;;;-2.54;73.87;102159.00;5050667;28;20028;-77
2022/04/03 01:44:32;;;;;;;16.63;4.93;;;;;;;-2.57;74.07;102167.75;5034768;28;20682;-77
2022/04/03 01:46:58;;;;;;;16.20;4.30;;;;;;;-2.59;74.49;102153.75;5051480;28;20610;-77
2022/04/03 01:49:23;;;;;;;13.82;4.43;;;;;;;-2.59;74.07;102153.75;5052550;28;20040;-77
2022/04/03 01:51:49;;;;;;;13.18;4.25;;;;;;;-2.61;74.46;102152.84;5041202;28;20469;-77
2022/04/03 01:54:14;;;;;;;14.57;4.15;;;;;;;-2.65;74.66;102153.69;5052564;28;20090;-77
2022/04/03 01:56:40;;;;;;;16.35;5.22;;;;;;;-2.68;74.56;102151.97;5051728;28;20029;-77
2022/04/03 01:59:06;;;;;;;13.05;4.53;;;;;;;-2.68;74.76;102156.31;5050813;28;20033;-77
2022/04/03 02:01:33;;;;;;;14.98;4.40;;;;;;;-2.68;74.80;102154.59;5052026;28;20460;-77
2022/04/03 02:04:00;;;;;;;18.70;4.88;;;;;;;-2.68;75.07;102153.69;5066627;28;20484;-77
2022/04/03 02:06:25;;;;;;;14.65;4.45;;;;;;;-2.72;74.51;102150.19;5041290;28;20041;-77
2022/04/03 02:08:51;;;;;;;13.95;4.82;;;;;;;-2.74;74.45;102151.06;5044274;28;20049;-77
2022/04/03 02:11:16;;;;;;;15.43;4.53;;;;;;;-2.75;75.09;102152.81;5044754;28;20029;-77
2022/04/03 02:13:41;;;;;;;27.23;4.82;;;;;;;-2.78;75.10;102147.56;5051835;28;20041;-77
2022/04/03 02:16:07;;;;;;;14.30;4.50;;;;;;;-2.82;75.48;102149.28;5051931;28;20068;-77
2022/04/03 02:18:32;;;;;;;17.10;5.40;;;;;;;-2.84;75.28;102144.88;5050101;28;20037;-76
2022/04/03 02:20:58;;;;;;;17.77;5.32;;;;;;;-2.84;75.65;102147.50;5050027;28;20063;-76
2022/04/03 02:23:23;;;;;;;17.75;5.50;;;;;;;-2.86;76.01;102139.59;5047822;28;20458;-76
2022/04/03 02:25:50;;;;;;;21.42;5.40;;;;;;;-2.90;75.92;102145.75;5037519;28;20056;-77
2022/04/03 02:28:16;;;;;;;16.70;5.35;;;;;;;-2.89;76.19;102147.50;5050486;28;20048;-77
2022/04/03 02:30:42;;;;;;;16.90;5.60;;;;;;;-2.90;75.73;102144.84;5048003;28;20461;-77
2022/04/03 02:33:07;;;;;;;17.65;6.32;;;;;;;-2.93;75.77;102145.72;5051371;28;20036;-77
2022/04/03 02:35:32;;;;;;;20.20;7.13;;;;;;;-2.94;75.68;102138.72;5047712;28;20030;-77
2022/04/03 02:37:58;;;;;;;19.08;5.50;;;;;;;-2.95;75.59;102136.94;5046949;28;20087;-77
2022/04/03 02:40:23;;;;;;;14.00;4.57;;;;;;;-2.96;76.08;102140.44;5050809;28;20033;-77
2022/04/03 02:42:48;;;;;;;17.98;4.60;;;;;;;-3.01;76.06;102139.56;5051002;28;20036;-77
2022/04/03 02:45:15;;;;;;;15.55;4.50;;;;;;;-3.05;76.14;102143.91;5050225;28;20036;-77
2022/04/03 02:47:48;;;;;;;15.95;5.50;;;;;;;-3.04;76.68;102150.09;5046644;28;20025;-77
2022/04/03 02:50:16;;;;;;;16.02;4.75;;;;;;;-3.06;76.10;102143.91;5043803;28;20031;-77
2022/04/03 02:52:41;;;;;;;17.88;5.18;;;;;;;-3.08;76.37;102146.53;5050993;28;20032;-77
2022/04/03 02:55:07;;;;;;;16.02;5.25;;;;;;;-3.09;76.49;102147.44;5050929;28;20365;-77
2022/04/03 02:57:32;;;;;;;16.80;5.53;;;;;;;-3.11;76.14;102154.41;5047248;28;20162;-77
2022/04/03 02:59:58;;;;;;;16.90;5.78;;;;;;;-3.12;76.33;102151.78;5049740;28;20024;-77
2022/04/03 03:02:23;;;;;;;17.27;5.30;;;;;;;-3.12;76.61;102151.78;5038314;28;20029;-77
2022/04/03 03:04:48;;;;;;;19.85;5.47;;;;;;;-3.13;76.26;102152.66;5049769;28;20113;-77
2022/04/03 03:07:14;;;;;;;16.70;5.18;;;;;;;-3.16;76.54;102143.88;5049558;28;20060;-77
2022/04/03 03:09:40;;;;;;;15.35;4.95;;;;;;;-3.16;76.64;102157.03;5051468;28;20048;-77
2022/04/03 03:12:05;;;;;;;19.52;5.80;;;;;;;-3.16;76.72;102156.16;5050557;28;20049;-77
2022/04/03 03:14:31;;;;;;;14.50;4.45;;;;;;;-3.17;76.52;102151.78;5050277;28;20083;-77
2022/04/03 03:16:56;;;;;;;15.07;4.57;;;;;;;-3.20;76.90;102150.00;5054027;28;20037;-77
2022/04/03 03:19:22;;;;;;;13.23;4.53;;;;;;;-3.21;76.99;102150.88;5046300;28;20040;-77
2022/04/03 03:21:47;;;;;;;17.17;5.00;;;;;;;-3.22;76.94;102158.75;5054009;28;20028;-77
2022/04/03 03:24:12;;;;;;;17.60;4.78;;;;;;;-3.25;77.09;102162.25;5050572;28;20036;-77
2022/04/03 03:26:38;;;;;;;14.10;4.45;;;;;;;-3.27;77.36;102158.72;5047645;28;20082;-77
2022/04/03 03:29:03;;;;;;;12.95;4.53;;;;;;;-3.28;77.49;102167.50;5054997;28;20060;-77
2022/04/03 03:31:29;;;;;;;14.18;4.70;;;;;;;-3.28;77.13;102162.25;5053299;28;20450;-77
2022/04/03 03:33:55;;;;;;;14.98;4.18;;;;;;;-3.30;77.02;102165.72;5053525;28;20107;-77
2022/04/03 03:36:20;;;;;;;14.30;4.50;;;;;;;-3.33;77.67;102162.19;5040622;28;20045;-77
2022/04/03 03:38:46;;;;;;;16.40;4.70;;;;;;;-3.34;77.34;102164.81;5046893;28;20502;-77
2022/04/03 03:41:11;;;;;;;15.65;5.43;;;;;;;-3.39;77.22;102156.03;5053543;28;20082;-77
2022/04/03 03:43:36;;;;;;;16.73;5.10;;;;;;;-3.41;77.34;102166.56;5054627;28;20029;-77
2022/04/03 03:46:02;;;;;;;13.55;4.63;;;;;;;-3.43;76.89;102163.00;5054654;28;20024;-77
2022/04/03 03:48:27;;;;;;;16.30;4.65;;;;;;;-3.43;76.62;102167.41;5054146;28;20072;-77
2022/04/03 03:50:53;;;;;;;22.48;4.82;;;;;;;-3.45;76.64;102161.28;5053143;28;20040;-77
2022/04/03 03:53:19;;;;;;;14.60;5.15;;;;;;;-3.46;77.55;102160.38;5044302;28;20033;-77
2022/04/03 03:55:44;;;;;;;16.80;5.15;;;;;;;-3.45;77.56;102164.78;5054410;28;20020;-77
2022/04/03 03:58:10;;;;;;;15.18;4.82;;;;;;;-3.47;77.48;102156.00;5035593;28;20040;-77
2022/04/03 04:00:35;;;;;;;16.13;5.13;;;;;;;-3.51;77.23;102164.75;5038356;28;20044;-77
2022/04/03 04:03:01;;;;;;;15.55;5.00;;;;;;;-3.52;77.42;102160.34;5054242;28;20035;-77
2022/04/03 04:05:26;;;;;;;17.00;5.15;;;;;;;-3.52;77.82;102162.97;5051540;28;20035;-76
2022/04/03 04:07:52;;;;;;;14.18;5.10;;;;;;;-3.52;78.14;102162.97;5053682;28;20126;-76
2022/04/03 04:10:19;;;;;;;15.52;4.60;;;;;;;-3.54;78.07;102165.59;5053843;28;20057;-77
2022/04/03 04:12:46;;;;;;;18.65;5.25;;;;;;;-3.55;77.82;102158.56;5053682;28;20028;-77
2022/04/03 04:15:12;;;;;;;16.08;5.55;;;;;;;-3.58;77.98;102158.56;5052473;28;20037;-77
2022/04/03 04:17:48;;;;;;;14.90;4.80;;;;;;;-3.60;77.94;102165.56;5051061;28;20032;-77
2022/04/03 04:20:18;;;;;;;16.23;5.57;;;;;;;-3.65;77.86;102164.63;5051667;28;20091;-77
2022/04/03 04:22:44;;;;;;;;;;;;;;;-3.59;76.77;102158.53;5052962;28;20483;-77
2022/04/03 04:25:14;;;;;;;14.13;4.75;;;;;;;-3.66;78.26;102162.00;5053140;28;19959;-77
2022/04/03 04:27:40;;;;;;;13.25;4.78;;;;;;;-3.66;77.74;102162.91;5053310;28;20396;-77
2022/04/03 04:30:06;;;;;;;14.57;4.68;;;;;;;-3.67;77.86;102169.00;5053644;28;20035;-77
2022/04/03 04:32:32;;;;;;;13.52;4.65;;;;;;;-3.68;77.89;102164.63;5043840;28;20036;-77
2022/04/03 04:34:57;;;;;;;14.55;4.47;;;;;;;-3.69;78.37;102170.72;5046839;28;20477;-77
2022/04/03 04:37:22;;;;;;;15.23;4.60;;;;;;;-3.70;78.51;102179.50;5067569;28;20025;-77
2022/04/03 04:39:48;;;;;;;13.90;4.38;;;;;;;-3.70;78.24;102179.50;5049923;28;20044;-77
2022/04/03 04:42:13;;;;;;;16.08;4.03;;;;;;;-3.67;78.67;102184.78;5051899;28;20087;-77
2022/04/03 04:44:39;;;;;;;14.82;4.32;;;;;;;-3.62;78.43;102180.41;5052111;28;20063;-77
2022/04/03 04:47:05;;;;;;;19.23;5.07;;;;;;;-3.59;78.59;102179.56;5053108;28;20115;-77
2022/04/03 04:49:30;;;;;;;18.77;5.47;;;;;;;-3.58;78.23;102178.69;5050756;28;20462;-77
2022/04/03 04:51:55;;;;;;;16.35;5.35;;;;;;;-3.58;78.25;102171.69;5042154;28;20560;-77
2022/04/03 04:54:21;;;;;;;17.15;4.45;;;;;;;-3.54;77.93;102177.88;5050504;28;20025;-77
2022/04/03 04:56:47;;;;;;;15.90;5.45;;;;;;;-3.54;78.16;102176.09;5051358;28;20017;-77
2022/04/03 04:59:12;;;;;;;11.32;4.45;;;;;;;-3.55;78.16;102173.47;5048066;28;20029;-77
2022/04/03 05:01:38;;;;;;;17.00;5.30;;;;;;;-3.54;78.29;102173.47;5049509;28;20675;-77
2022/04/03 05:04:03;;;;;;;15.88;5.30;;;;;;;-3.51;78.33;102186.63;5050768;28;20067;-77
2022/04/03 05:06:29;;;;;;;15.90;4.75;;;;;;;-3.53;78.08;102187.47;5037632;28;20039;-77
2022/04/03 05:08:55;;;;;;;15.18;4.50;;;;;;;-3.56;78.03;102188.38;5052503;28;20079;-77
2022/04/03 05:11:22;;;;;;;15.80;4.90;;;;;;;-3.54;78.29;102197.13;5045294;28;20060;-76
2022/04/03 05:13:48;;;;;;;15.07;4.68;;;;;;;-3.49;78.14;102194.53;5044035;28;20017;-76
2022/04/03 05:16:14;;;;;;;14.40;4.50;;;;;;;-3.48;78.03;102192.75;5045245;28;20078;-76
2022/04/03 05:18:39;;;;;;;14.85;4.57;;;;;;;-3.52;78.15;102192.75;5052654;28;20099;-76
2022/04/03 05:21:07;;;;;;;16.92;5.70;;;;;;;-3.55;78.54;102205.88;5039259;28;20052;-76
2022/04/03 05:23:32;;;;;;;19.52;4.82;;;;;;;-3.55;78.53;102197.13;5051123;28;20491;-77
2022/04/03 05:25:57;;;;;;;22.08;5.25;;;;;;;-3.52;79.09;102198.00;5047896;28;20017;-76
2022/04/03 05:28:23;;;;;;;19.38;5.07;;;;;;;-3.53;78.42;102193.63;5048339;28;20568;-76
2022/04/03 05:30:48;;;;;;;16.10;5.97;;;;;;;-3.52;79.07;102199.75;5048691;28;20021;-76
2022/04/03 05:33:14;;;;;;;14.93;4.30;;;;;;;-3.53;79.02;102200.63;5045711;28;20025;-76
2022/04/03 05:35:40;;;;;;;15.45;4.75;;;;;;;-3.51;79.48;102207.66;5044992;28;20413;-76
2022/04/03 05:38:05;;;;;;;14.75;4.60;;;;;;;-3.50;79.06;102208.53;5034595;28;20036;-76
2022/04/03 05:40:30;;;;;;;16.20;4.70;;;;;;;-3.46;78.56;102209.44;5045310;28;20544;-78
2022/04/03 05:42:56;;;;;;;17.02;5.00;;;;;;;-3.42;79.23;102213.84;5049412;28;20025;-77
2022/04/03 05:45:22;;;;;;;12.65;4.78;;;;;;;-3.38;79.30;102210.38;5065830;28;20028;-76
2022/04/03 05:47:48;;;;;;;11.23;3.85;;;;;;;-3.34;80.09;102214.75;5050783;28;20025;-77
2022/04/03 05:50:16;;;;;;;17.35;5.15;;;;;;;-3.28;80.59;102217.47;5050755;28;20104;-77
2022/04/03 05:52:47;;;;;;;16.88;5.57;;;;;;;-3.21;80.63;102223.63;5031446;28;20485;-76
2022/04/03 05:55:14;;;;;;;17.77;6.18;;;;;;;-3.14;79.98;102221.91;5042734;28;20028;-76
2022/04/03 05:57:39;;;;;;;16.30;5.38;;;;;;;-3.07;79.92;102221.09;5040455;28;20021;-76
2022/04/03 06:00:08;;;;;;;17.65;5.65;;;;;;;-2.99;80.34;102221.97;5047758;28;20032;-76
2022/04/03 06:02:56;;;;;;;15.95;5.53;;;;;;;-2.88;80.33;102229.94;5049693;28;20124;-76
2022/04/03 06:05:29;;;;;;;18.38;5.82;;;;;;;-2.84;80.53;102223.81;5046292;28;20025;-76
2022/04/03 06:07:54;;;;;;;18.23;5.40;;;;;;;-2.74;79.65;102222.09;5049519;28;20082;-76
2022/04/03 06:10:22;;;;;;;18.75;5.93;;;;;;;-2.66;80.34;102226.53;5047972;28;20033;-76
2022/04/03 06:13:07;;;;;;;17.55;5.40;;;;;;;-2.57;79.78;102233.56;5036797;28;20417;-76
2022/04/03 06:15:43;;;;;;;16.48;5.40;;;;;;;-2.52;80.48;102229.22;5042325;28;20480;-76
2022/04/03 06:18:10;;;;;;;14.18;5.03;;;;;;;-2.44;80.38;102233.63;5040507;28;20057;-76
2022/04/03 06:20:36;;;;;;;15.52;4.93;;;;;;;-2.36;80.20;102232.75;5050027;28;20052;-76
2022/04/03 06:23:03;;;;;;;16.70;5.47;;;;;;;-2.28;80.35;102240.69;5051837;28;20057;-76
2022/04/03 06:25:29;;;;;;;17.77;6.05;;;;;;;-2.24;80.31;102233.66;5050398;28;20078;-76
2022/04/03 06:27:55;;;;;;;15.85;5.03;;;;;;;-2.17;80.35;102241.56;5050767;28;20025;-76
2022/04/03 06:30:21;;;;;;;15.15;4.88;;;;;;;-2.11;80.15;102236.34;5050703;28;20453;-76
2022/04/03 06:32:47;;;;;;;17.45;5.68;;;;;;;-2.02;80.10;102234.56;5043673;28;20456;-76
2022/04/03 06:35:13;;;;;;;15.10;4.72;;;;;;;-1.95;79.62;102231.06;5049855;28;20139;-77
2022/04/03 06:37:39;;;;;;;15.45;5.00;;;;;;;-1.86;80.29;102232.84;5044888;28;20063;-76
2022/04/03 06:40:05;;;;;;;16.88;5.45;;;;;;;-1.81;79.71;102231.97;5049538;28;20075;-76
2022/04/03 06:42:31;;;;;;;16.77;5.93;;;;;;;-1.77;79.71;102225.81;5046680;28;20025;-76
2022/04/03 06:44:57;;;;;;;16.27;5.13;;;;;;;-1.72;79.77;102223.19;5058299;28;20457;-76
2022/04/03 06:47:23;;;;;;;16.58;5.63;;;;;;;-1.65;79.51;102224.06;5049763;28;20027;-76
2022/04/03 06:49:48;;;;;;;18.65;6.93;;;;;;;-1.58;79.48;102225.81;5049343;28;20029;-76
2022/04/03 06:52:14;;;;;;;20.65;6.60;;;;;;;-1.48;79.33;102227.56;5048659;28;20033;-76
2022/04/03 06:54:39;;;;;;;15.13;5.72;;;;;;;-1.37;79.33;102218.78;5047347;28;20036;-76
2022/04/03 06:57:04;;;;;;;17.77;5.93;;;;;;;-1.26;79.09;102222.25;5049532;28;20119;-76
2022/04/03 06:59:30;;;;;;;17.20;5.85;;;;;;;-1.15;79.37;102224.88;5044495;28;20035;-76
2022/04/03 07:01:56;;;;;;;18.70;6.18;;;;;;;-1.07;79.29;102220.44;5050730;28;20473;-76
2022/04/03 07:04:21;;;;;;;17.65;6.25;;;;;;;-0.96;78.91;102228.34;5049392;28;20028;-76
2022/04/03 07:06:46;;;;;;;18.95;7.47;;;;;;;-0.88;79.31;102216.88;5048174;28;20111;-76
2022/04/03 07:09:11;;;;;;;19.67;7.10;;;;;;;-0.80;79.12;102232.69;5050189;28;20020;-76
2022/04/03 07:11:37;;;;;;;21.00;7.25;;;;;;;-0.71;78.54;102232.63;5047461;28;20032;-76
2022/04/03 07:14:03;;;;;;;21.35;8.05;;;;;;;-0.62;78.57;102231.72;5048282;28;20373;-76
2022/04/03 07:16:28;;;;;;;19.25;7.88;;;;;;;-0.55;79.01;102229.94;5047126;28;20024;-76
2022/04/03 07:18:53;;;;;;;19.05;8.00;;;;;;;-0.47;79.50;102230.78;5049385;28;20483;-76
2022/04/03 07:21:18;;;;;;;20.60;7.13;;;;;;;-0.34;79.09;102228.06;5050958;28;20035;-76
2022/04/03 07:23:44;;;;;;;21.90;7.85;;;;;;;-0.25;79.76;102231.56;5048571;28;20052;-76
2022/04/03 07:26:09;;;;;;;21.42;9.10;;;;;;;-0.15;80.12;102237.63;5045631;28;20114;-76
2022/04/03 07:28:34;;;;;;;19.55;8.20;;;;;;;-0.03;80.29;102236.66;5048836;28;20104;-76
2022/04/03 07:30:59;;;;;;;23.02;9.30;;;;;;;0.06;80.08;102234.00;5029980;28;20028;-76
2022/04/03 07:33:25;;;;;;;20.50;8.52;;;;;;;0.17;79.86;102234.75;5034950;28;20060;-76
2022/04/03 07:35:51;;;;;;;24.80;11.13;;;;;;;0.30;79.61;102232.91;5046028;28;20021;-76
2022/04/03 07:38:18;;;;;;;23.60;8.65;;;;;;;0.42;79.19;102236.34;5050384;28;20039;-76
2022/04/03 07:40:44;;;;;;;22.33;8.25;;;;;;;0.52;79.53;102236.25;5048486;28;20056;-76
2022/04/03 07:43:09;;;;;;;19.15;7.88;;;;;;;0.63;79.23;102246.75;5042058;28;20049;-76
2022/04/03 07:45:34;;;;;;;19.90;7.53;;;;;;;0.73;79.23;102238.72;5048291;28;20048;-76
2022/04/03 07:47:59;;;;;;;18.67;7.38;;;;;;;0.82;78.46;102243.91;5040148;28;20033;-76
2022/04/03 07:50:25;;;;;;;19.67;7.65;;;;;;;0.93;77.92;102242.03;5040759;28;20025;-76
2022/04/03 07:52:51;;;;;;;25.65;8.40;;;;;;;1.03;78.53;102243.69;5045609;28;20033;-76
2022/04/03 07:55:17;;;;;;;19.92;7.28;;;;;;;1.12;78.08;102241.81;5045839;28;20488;-76
2022/04/03 07:57:42;;;;;;;18.63;6.30;;;;;;;1.21;77.76;102247.00;5049158;28;20029;-76
2022/04/03 08:00:10;;;;;;;18.77;6.80;;;;;;;1.29;76.56;102239.88;5050451;28;20032;-76
2022/04/03 08:02:37;;;;;;;20.48;6.53;;;;;;;1.36;75.05;102241.53;5050546;28;20035;-76
2022/04/03 08:05:03;;;;;;;16.67;6.07;;;;;;;1.45;75.53;102245.84;5045487;28;20496;-76
2022/04/03 08:07:38;;;;;;;16.27;5.30;;;;;;;1.54;73.87;102235.13;5053890;28;20552;-76
2022/04/03 08:10:06;;;;;;;14.77;5.32;;;;;;;1.66;74.30;102235.88;5051926;28;20044;-76
2022/04/03 08:12:32;;;;;;;13.60;4.80;;;;;;;1.75;74.25;102241.88;5053997;28;20029;-76
2022/04/03 08:14:57;;;;;;;15.57;4.85;;;;;;;1.85;72.04;102244.44;5053891;28;20020;-76
2022/04/03 08:17:22;;;;;;;12.88;3.72;;;;;;;1.91;69.21;102241.69;5053887;28;20025;-76
2022/04/03 08:19:47;;;;;;;13.05;3.60;;;;;;;2.02;69.60;102247.72;5052826;28;20575;-76
2022/04/03 08:22:13;;;;;;;12.20;3.92;;;;;;;2.08;69.28;102241.44;5052589;28;20029;-77
2022/04/03 08:24:38;;;;;;;12.10;4.15;;;;;;;2.19;69.64;102243.91;5054234;28;20033;-77
2022/04/03 08:27:03;;;;;;;10.98;3.00;;;;;;;2.27;68.11;102249.97;5053577;28;20473;-76
2022/04/03 08:29:29;;;;;;;7.95;2.75;;;;;;;2.36;67.43;102248.97;5051785;28;20095;-76
2022/04/03 08:31:54;;;;;;;12.15;2.85;;;;;;;2.43;65.39;102248.81;5052134;28;20071;-76
2022/04/03 08:34:19;;;;;;;13.07;2.92;;;;;;;2.51;66.43;102253.13;5051429;28;20113;-78
2022/04/03 08:36:44;;;;;;;13.52;3.00;;;;;;;2.57;66.18;102250.38;5052373;28;20488;-77
2022/04/03 08:39:10;;;;;;;9.43;3.00;;;;;;;2.62;65.23;102246.72;5052309;28;20086;-77
2022/04/03 08:41:38;;;;;;;10.40;2.63;;;;;;;2.70;66.36;102253.69;5053813;28;20017;-77
2022/04/03 08:44:07;;;;;;;8.13;2.20;;;;;;;2.75;65.97;102244.75;5053675;28;20037;-76
2022/04/03 08:46:33;;;;;;;6.15;1.65;;;;;;;2.83;65.74;102247.25;5052785;28;20049;-76
2022/04/03 08:49:00;;;;;;;8.23;2.67;;;;;;;2.88;65.24;102248.03;5051475;28;20056;-76
2022/04/03 08:51:28;;;;;;;12.35;3.67;;;;;;;2.95;66.18;102251.44;5053072;28;20104;-76
2022/04/03 08:53:53;;;;;;;10.20;3.28;;;;;;;3.01;65.65;102253.97;5046416;28;20037;-77
2022/04/03 08:56:19;;;;;;;9.73;3.22;;;;;;;3.06;64.99;102249.47;5049647;28;20384;-77
2022/04/03 08:58:44;;;;;;;10.68;3.47;;;;;;;3.09;65.87;102249.41;5050912;28;20044;-77
2022/04/03 09:01:11;;;;;;;12.55;3.92;;;;;;;3.15;66.57;102246.63;5044864;28;20033;-77
2022/04/03 09:03:37;;;;;;;19.08;4.00;;;;;;;3.23;65.48;102248.25;5038849;28;20055;-77
2022/04/03 09:06:16;;;;;;;9.73;3.30;;;;;;;3.31;66.21;102244.53;5052692;28;20048;-79
2022/04/03 09:08:43;;;;;;;8.95;2.67;;;;;;;3.38;62.75;102247.06;5053351;28;20459;-78
2022/04/03 09:11:09;;;;;;;12.55;3.70;;;;;;;3.41;63.34;102239.91;5041698;28;20040;-77
2022/04/03 09:13:35;;;;;;;10.77;3.40;;;;;;;3.47;63.82;102245.09;5051229;28;20029;-77
2022/04/03 09:16:00;;;;;;;10.70;3.08;;;;;;;3.54;62.47;102247.63;5050930;28;20151;-77
2022/04/03 09:18:41;;;;;;;9.93;3.13;;;;;;;3.64;64.01;102242.06;5052413;28;20020;-77
2022/04/03 09:21:26;;;;;;;13.70;3.47;;;;;;;3.77;62.41;102247.13;5040949;28;20032;-76
2022/04/03 09:24:03;;;;;;;11.85;3.22;;;;;;;3.81;62.49;102239.03;5049734;28;20025;-76
2022/04/03 09:26:29;;;;;;;10.80;3.17;;;;;;;3.90;62.87;102232.63;5048241;28;20025;-76
2022/04/03 09:29:15;;;;;;;8.55;2.53;;;;;;;3.96;62.83;102223.63;5042369;28;20028;-79
2022/04/03 09:31:42;;;;;;;8.73;2.83;;;;;;;4.04;62.26;102229.63;5043420;28;20065;-77
2022/04/03 09:34:15;;;;;;;12.73;3.35;;;;;;;4.12;59.68;102221.50;5038965;28;20087;-77
2022/04/03 09:36:40;;;;;;;8.18;2.72;;;;;;;4.21;60.04;102231.91;5035983;28;20021;-77
2022/04/03 09:39:18;;;;;;;8.85;2.75;;;;;;;4.29;60.81;102229.03;5039646;28;20030;-77
2022/04/03 09:42:03;;;;;;;9.13;2.78;;;;;;;4.30;60.40;102229.00;5044098;28;20086;-77
2022/04/03 09:44:37;;;;;;;9.30;2.97;;;;;;;4.27;60.67;102221.09;5035874;28;20036;-77
2022/04/03 09:47:13;;;;;;;6.72;2.42;;;;;;;4.26;59.48;102224.69;5041813;28;20381;-77
2022/04/03 09:49:39;;;;;;;6.88;2.50;;;;;;;4.30;59.73;102228.13;5041440;28;20182;-77
2022/04/03 09:52:05;;;;;;;6.55;2.50;;;;;;;4.33;59.04;102218.31;5036703;28;20036;-77
2022/04/03 09:54:30;;;;;;;4.50;2.08;;;;;;;4.37;57.17;102211.97;5035146;28;20465;-77
2022/04/03 09:56:56;;;;;;;9.57;2.38;;;;;;;4.46;58.03;102212.66;5035321;28;20592;-77
2022/04/03 09:59:22;;;;;;;6.18;2.60;;;;;;;4.53;57.09;102207.13;5037813;28;20013;-77
2022/04/03 10:01:55;;;;;;;6.22;2.33;;;;;;;4.60;56.47;102204.28;5040242;28;20109;-78
2022/04/03 10:04:22;;;;;;;7.40;2.30;;;;;;;4.72;55.89;102206.66;5060974;28;20021;-77
2022/04/03 10:06:48;;;;;;;9.57;2.15;;;;;;;4.79;54.64;102208.22;5033875;28;20461;-77
2022/04/03 10:09:15;;;;;;;6.03;1.92;;;;;;;4.84;55.93;102202.78;5033116;28;20087;-77
2022/04/03 10:11:42;;;;;;;8.00;2.15;;;;;;;4.85;54.18;102201.88;5031394;28;20022;-77
2022/04/03 10:14:08;;;;;;;6.10;2.45;;;;;;;4.88;53.85;102196.47;5043198;28;20112;-77
2022/04/03 10:16:34;;;;;;;6.65;1.95;;;;;;;4.95;55.54;102194.47;5041802;28;20500;-77
2022/04/03 10:18:59;;;;;;;4.43;1.63;;;;;;;5.02;53.61;102191.63;5036004;28;20065;-77
2022/04/03 10:21:31;;;;;;;5.22;1.85;;;;;;;5.09;51.95;102192.28;5042929;28;20417;-77
2022/04/03 10:24:19;;;;;;;2.47;1.77;;;;;;;5.15;54.55;102189.44;5038421;28;20048;-77
2022/04/03 10:26:56;;;;;;;5.80;1.90;;;;;;;5.19;52.99;102187.59;5041989;28;20048;-77
2022/04/03 10:29:22;;;;;;;3.60;1.90;;;;;;;5.29;53.19;102183.72;5047599;28;20116;-76
2022/04/03 10:31:56;;;;;;;3.83;1.77;;;;;;;5.36;53.59;102184.41;5047697;28;20025;-76
2022/04/03 10:34:22;;;;;;;7.10;2.10;;;;;;;5.50;54.80;102176.88;5043962;28;20058;-76
2022/04/03 10:36:50;;;;;;;6.07;2.00;;;;;;;5.62;55.01;102182.75;5042338;28;20056;-76
2022/04/03 10:39:30;;;;;;;7.75;2.20;;;;;;;5.69;53.50;102181.63;5037860;28;20025;-76
2022/04/03 10:42:20;;;;;;;6.85;2.00;;;;;;;5.76;52.32;102180.53;5040900;28;20021;-76
2022/04/03 10:45:11;;;;;;;6.80;1.88;;;;;;;5.80;51.58;102176.84;5038096;28;20029;-76
2022/04/03 10:47:38;;;;;;;8.27;2.22;;;;;;;5.80;51.85;102184.84;5007963;28;20130;-77
2022/04/03 10:50:08;;;;;;;3.92;2.00;;;;;;;5.83;51.45;102184.75;5046725;28;20219;-77
2022/04/03 10:52:45;;;;;;;;;;;;;;;5.87;53.05;102175.72;5036206;28;20029;-77
2022/04/03 10:55:25;;;;;;;7.57;2.67;;;;;;;5.89;52.45;102171.19;5035231;28;21357;-76
2022/04/03 10:58:02;;;;;;;8.25;2.60;;;;;;;5.91;53.74;102173.81;5035447;28;20400;-76
2022/04/03 11:00:27;;;;;;;10.00;2.90;;;;;;;5.85;52.55;102172.22;5029633;28;20025;-76
2022/04/03 11:02:55;;;;;;;8.18;2.33;;;;;;;5.85;52.47;102172.22;5050633;28;20029;-76
2022/04/03 11:05:24;;;;;;;7.55;2.58;;;;;;;5.89;53.84;102165.88;5039163;28;20037;-76
2022/04/03 11:08:10;;;;;;;5.45;2.05;;;;;;;5.94;53.80;102163.94;5044392;28;20056;-76
2022/04/03 11:10:58;;;;;;;8.45;2.72;;;;;;;6.03;54.34;102154.78;5028055;28;20045;-76
2022/04/03 11:13:38;;;;;;;5.75;2.28;;;;;;;6.11;53.02;102160.72;5048736;28;20040;-76
2022/04/03 11:16:10;;;;;;;8.73;2.30;;;;;;;6.17;50.74;102156.13;5036305;28;20048;-76
2022/04/03 11:18:45;;;;;;;5.32;2.13;;;;;;;6.13;50.23;102152.66;5050983;28;20495;-78
2022/04/03 11:21:20;;;;;;;4.80;1.92;;;;;;;6.08;50.38;102149.28;5048644;28;20055;-78